createdAt,value
2024-04-19T00:00:21.971Z,88273.00
2024-04-19T00:01:21.961Z,88274.00
2024-04-19T00:02:21.918Z,88271.00
2024-04-19T00:03:22.030Z,88272.00
2024-04-19T00:04:21.996Z,88273.00
2024-04-19T00:05:21.891Z,88272.00
2024-04-19T00:06:21.884Z,88269.00
2024-04-19T00:07:21.856Z,88268.00
2024-04-19T00:08:22.760Z,88270.00
2024-04-19T00:09:21.901Z,88267.00
2024-04-19T00:10:21.851Z,88262.00
2024-04-19T00:11:21.894Z,88266.00
2024-04-19T00:12:21.914Z,88263.00
2024-04-19T00:13:21.835Z,88266.00
2024-04-19T00:14:21.795Z,88264.00
2024-04-19T00:15:21.846Z,88266.00
2024-04-19T00:16:21.783Z,88267.00
2024-04-19T00:17:21.777Z,88269.00
2024-04-19T00:18:21.832Z,88268.00
2024-04-19T00:19:22.815Z,88269.00
2024-04-19T00:20:22.291Z,88268.00
2024-04-19T00:21:23.278Z,88270.00
2024-04-19T00:22:21.750Z,88272.00
2024-04-19T00:23:21.743Z,88274.00
2024-04-19T00:24:21.751Z,88276.00
2024-04-19T00:25:21.726Z,88275.00
2024-04-19T00:26:21.755Z,88275.00
2024-04-19T00:27:21.755Z,88275.00
2024-04-19T00:28:21.769Z,88273.00
2024-04-19T00:29:21.803Z,88274.00
2024-04-19T00:30:21.781Z,88276.00
2024-04-19T00:31:22.361Z,88275.00
2024-04-19T00:32:21.761Z,88276.00
2024-04-19T00:33:21.823Z,88277.00
2024-04-19T00:34:21.765Z,88277.00
2024-04-19T00:35:21.674Z,88276.00
2024-04-19T00:36:21.738Z,88278.00
2024-04-19T00:37:21.670Z,88276.00
2024-04-19T00:38:21.722Z,88276.00
2024-04-19T00:39:21.740Z,88275.00
2024-04-19T00:40:21.700Z,88275.00
2024-04-19T00:41:21.662Z,88273.00
2024-04-19T00:42:21.672Z,88274.00
2024-04-19T00:43:21.654Z,88273.00
2024-04-19T00:44:21.678Z,88275.00
2024-04-19T00:45:21.723Z,88274.00
2024-04-19T00:46:21.700Z,88275.00
2024-04-19T00:47:21.661Z,88273.00
2024-04-19T00:48:21.759Z,88274.00
2024-04-19T00:49:21.631Z,88276.00
2024-04-19T00:50:21.657Z,88274.00
2024-04-19T00:51:21.676Z,88275.00
2024-04-19T00:52:21.628Z,88277.00
2024-04-19T00:53:21.687Z,88274.00
2024-04-19T00:54:21.619Z,88274.00
2024-04-19T00:55:21.598Z,88272.00
2024-04-19T00:56:21.648Z,88272.00
2024-04-19T00:57:21.609Z,88271.00
2024-04-19T00:58:21.607Z,88273.00
2024-04-19T00:59:21.570Z,88272.00
2024-04-19T01:00:21.588Z,88269.00
2024-04-19T01:01:21.637Z,88270.00
2024-04-19T01:02:21.586Z,88272.00
2024-04-19T01:03:22.380Z,88270.00
2024-04-19T01:04:21.581Z,88269.00
2024-04-19T01:05:21.509Z,88271.00
2024-04-19T01:06:21.524Z,88270.00
2024-04-19T01:07:21.486Z,88268.00
2024-04-19T01:08:21.459Z,88270.00
2024-04-19T01:09:22.314Z,88269.00
2024-04-19T01:10:21.462Z,88266.00
2024-04-19T01:11:22.280Z,88269.00
2024-04-19T01:12:21.415Z,88268.00
2024-04-19T01:13:22.780Z,88270.00
2024-04-19T01:14:21.389Z,88271.00
2024-04-19T01:15:21.386Z,88270.00
2024-04-19T01:16:21.362Z,88272.00
2024-04-19T01:17:21.417Z,88272.00
2024-04-19T01:18:21.473Z,88270.00
2024-04-19T01:19:21.326Z,88270.00
2024-04-19T01:20:21.313Z,88268.00
2024-04-19T01:21:21.311Z,88266.00
2024-04-19T01:22:21.311Z,88263.00
2024-04-19T01:23:21.297Z,88259.00
2024-04-19T01:24:21.326Z,88257.00
2024-04-19T01:25:21.255Z,88254.00
2024-04-19T01:26:21.255Z,88254.00
2024-04-19T01:27:21.264Z,88252.00
2024-04-19T01:28:21.281Z,88250.00
2024-04-19T01:29:21.220Z,88248.00
2024-04-19T01:30:21.251Z,88246.00
2024-04-19T01:31:21.189Z,88244.00
2024-04-19T01:32:21.227Z,88244.00
2024-04-19T01:33:22.096Z,88245.00
2024-04-19T01:34:21.379Z,88243.00
2024-04-19T01:35:21.158Z,88244.00
2024-04-19T01:36:21.327Z,88246.00
2024-04-19T01:37:21.132Z,88245.00
2024-04-19T01:38:21.208Z,88242.00
2024-04-19T01:39:21.162Z,88244.00
2024-04-19T01:40:21.208Z,88239.00
2024-04-19T01:41:21.105Z,88241.00
2024-04-19T01:42:21.099Z,88242.00
2024-04-19T01:43:21.094Z,88240.00
2024-04-19T01:44:21.089Z,88239.00
2024-04-19T01:45:21.093Z,88240.00
2024-04-19T01:46:21.090Z,88240.00
2024-04-19T01:47:21.079Z,88238.00
2024-04-19T01:48:21.069Z,88241.00
2024-04-19T01:49:21.022Z,88240.00
2024-04-19T01:50:21.115Z,88241.00
2024-04-19T01:51:21.009Z,88239.00
2024-04-19T01:52:20.992Z,88238.00
2024-04-19T01:53:21.033Z,88239.00
2024-04-19T01:54:21.038Z,88237.00
2024-04-19T01:55:20.956Z,88236.00
2024-04-19T01:56:20.958Z,88237.00
2024-04-19T01:57:20.940Z,88238.00
2024-04-19T01:58:20.946Z,88237.00
2024-04-19T01:59:21.827Z,88235.00
2024-04-19T02:00:20.923Z,88235.00
2024-04-19T02:01:20.958Z,88234.00
2024-04-19T02:02:20.906Z,88233.00
2024-04-19T02:03:20.902Z,88233.00
2024-04-19T02:04:21.848Z,88230.00
2024-04-19T02:05:20.862Z,88230.00
2024-04-19T02:06:20.851Z,88230.00
2024-04-19T02:07:20.816Z,88234.00
2024-04-19T02:08:20.897Z,88233.00
2024-04-19T02:09:20.876Z,88233.00
2024-04-19T02:10:20.776Z,88234.00
2024-04-19T02:11:20.861Z,88232.00
2024-04-19T02:12:20.998Z,88231.00
2024-04-19T02:13:20.756Z,88229.00
2024-04-19T02:14:20.720Z,88229.00
2024-04-19T02:15:20.803Z,88227.00
2024-04-19T02:16:20.684Z,88228.00
2024-04-19T02:17:20.709Z,88227.00
2024-04-19T02:18:20.782Z,88228.00
2024-04-19T02:19:20.632Z,88224.00
2024-04-19T02:20:20.655Z,88225.00
2024-04-19T02:21:20.650Z,88221.00
2024-04-19T02:22:20.604Z,88221.00
2024-04-19T02:23:20.600Z,88222.00
2024-04-19T02:24:20.637Z,88223.00
2024-04-19T02:25:20.576Z,88224.00
2024-04-19T02:26:20.586Z,88223.00
2024-04-19T02:27:20.569Z,88222.00
2024-04-19T02:28:20.559Z,88223.00
2024-04-19T02:29:20.547Z,88223.00
2024-04-19T02:30:20.565Z,88226.00
2024-04-19T02:31:20.523Z,88227.00
2024-04-19T02:32:20.543Z,88225.00
2024-04-19T02:33:20.610Z,88225.00
2024-04-19T02:34:20.589Z,88227.00
2024-04-19T02:35:20.500Z,88227.00
2024-04-19T02:36:20.478Z,88228.00
2024-04-19T02:37:20.470Z,88228.00
2024-04-19T02:38:20.463Z,88228.00
2024-04-19T02:39:20.469Z,88225.00
2024-04-19T02:40:20.435Z,88223.00
2024-04-19T02:41:20.434Z,88223.00
2024-04-19T02:42:20.466Z,88221.00
2024-04-19T02:43:20.406Z,88224.00
2024-04-19T02:44:20.399Z,88226.00
2024-04-19T02:45:20.393Z,88225.00
2024-04-19T02:46:20.439Z,88226.00
2024-04-19T02:47:20.373Z,88225.00
2024-04-19T02:48:20.376Z,88224.00
2024-04-19T02:49:20.378Z,88222.00
2024-04-19T02:50:20.350Z,88221.00
2024-04-19T02:51:20.420Z,88221.00
2024-04-19T02:52:20.339Z,88219.00
2024-04-19T02:53:20.361Z,88220.00
2024-04-19T02:54:20.340Z,88220.00
2024-04-19T02:55:20.300Z,88218.00
2024-04-19T02:56:20.288Z,88215.00
2024-04-19T02:57:20.300Z,88214.00
2024-04-19T02:58:20.306Z,88212.00
2024-04-19T02:59:20.267Z,88211.00
2024-04-19T03:00:20.301Z,88209.00
2024-04-19T03:01:20.256Z,88209.00
2024-04-19T03:02:20.244Z,88211.00
2024-04-19T03:03:20.267Z,88210.00
2024-04-19T03:04:20.254Z,88207.00
2024-04-19T03:05:20.215Z,88207.00
2024-04-19T03:06:20.259Z,88207.00
2024-04-19T03:07:20.222Z,88206.00
2024-04-19T03:08:20.184Z,88206.00
2024-04-19T03:09:20.194Z,88205.00
2024-04-19T03:10:20.159Z,88203.00
2024-04-19T03:11:20.157Z,88201.00
2024-04-19T03:12:20.257Z,88202.00
2024-04-19T03:13:20.144Z,88200.00
2024-04-19T03:14:20.094Z,88202.00
2024-04-19T03:15:20.161Z,88200.00
2024-04-19T03:16:20.076Z,88200.00
2024-04-19T03:17:20.129Z,88199.00
2024-04-19T03:18:20.103Z,88201.00
2024-04-19T03:19:20.035Z,88200.00
2024-04-19T03:20:20.044Z,88202.00
2024-04-19T03:21:20.051Z,88202.00
2024-04-19T03:22:20.031Z,88202.00
2024-04-19T03:23:20.052Z,88199.00
2024-04-19T03:24:20.078Z,88193.00
2024-04-19T03:25:20.032Z,88192.00
2024-04-19T03:26:20.005Z,88188.00
2024-04-19T03:27:20.047Z,88187.00
2024-04-19T03:28:20.107Z,88187.00
2024-04-19T03:29:20.041Z,88184.00
2024-04-19T03:30:19.979Z,88185.00
2024-04-19T03:31:19.946Z,88185.00
2024-04-19T03:32:19.933Z,88185.00
2024-04-19T03:33:20.160Z,88183.00
2024-04-19T03:34:19.934Z,88184.00
2024-04-19T03:35:19.889Z,88183.00
2024-04-19T03:36:19.945Z,88182.00
2024-04-19T03:37:19.871Z,88186.00
2024-04-19T03:38:19.907Z,88184.00
2024-04-19T03:39:19.948Z,88185.00
2024-04-19T03:40:19.845Z,88184.00
2024-04-19T03:41:19.820Z,88183.00
2024-04-19T03:42:19.891Z,88183.00
2024-04-19T03:43:19.815Z,88186.00
2024-04-19T03:44:19.804Z,88184.00
2024-04-19T03:45:19.822Z,88185.00
2024-04-19T03:46:19.790Z,88183.00
2024-04-19T03:47:19.866Z,88183.00
2024-04-19T03:48:19.894Z,88180.00
2024-04-19T03:49:19.772Z,88178.00
2024-04-19T03:50:19.765Z,88179.00
2024-04-19T03:51:19.790Z,88176.00
2024-04-19T03:52:19.744Z,88174.00
2024-04-19T03:53:19.756Z,88177.00
2024-04-19T03:54:19.818Z,88175.00
2024-04-19T03:55:19.806Z,88177.00
2024-04-19T03:56:19.840Z,88178.00
2024-04-19T03:57:19.924Z,88176.00
2024-04-19T03:58:19.923Z,88177.00
2024-04-19T03:59:19.969Z,88176.00
2024-04-19T04:00:19.988Z,88173.00
2024-04-19T04:01:20.003Z,88171.00
2024-04-19T04:02:20.075Z,88173.00
2024-04-19T04:03:20.326Z,88173.00
2024-04-19T04:04:20.163Z,88172.00
2024-04-19T04:05:20.174Z,88173.00
2024-04-19T04:06:20.239Z,88172.00
2024-04-19T04:07:20.271Z,88171.00
2024-04-19T04:08:20.339Z,88167.00
2024-04-19T04:09:20.344Z,88167.00
2024-04-19T04:10:20.434Z,88169.00
2024-04-19T04:11:20.456Z,88169.00
2024-04-19T04:12:20.477Z,88167.00
2024-04-19T04:13:20.530Z,88167.00
2024-04-19T04:14:20.581Z,88166.00
2024-04-19T04:15:20.608Z,88167.00
2024-04-19T04:16:20.654Z,88165.00
2024-04-19T04:17:20.735Z,88166.00
2024-04-19T04:18:20.906Z,88166.00
2024-04-19T04:19:20.998Z,88162.00
2024-04-19T04:20:20.870Z,88163.00
2024-04-19T04:21:20.941Z,88163.00
2024-04-19T04:22:20.967Z,88163.00
2024-04-19T04:23:21.019Z,88165.00
2024-04-19T04:24:21.102Z,88168.00
2024-04-19T04:25:21.141Z,88168.00
2024-04-19T04:26:21.172Z,88169.00
2024-04-19T04:27:21.267Z,88169.00
2024-04-19T04:28:21.325Z,88171.00
2024-04-19T04:29:21.347Z,88170.00
2024-04-19T04:30:21.433Z,88168.00
2024-04-19T04:31:21.457Z,88170.00
2024-04-19T04:32:21.555Z,88169.00
2024-04-19T04:33:21.695Z,88167.00
2024-04-19T04:34:29.015Z,88164.00
2024-04-19T04:35:29.002Z,88162.00
2024-04-19T04:36:28.997Z,88162.00
2024-04-19T04:37:28.979Z,88163.00
2024-04-19T04:38:28.981Z,88163.00
2024-04-19T04:39:29.138Z,88165.00
2024-04-19T04:40:29.043Z,88166.00
2024-04-19T04:41:28.990Z,88166.00
2024-04-19T04:42:29.024Z,88165.00
2024-04-19T04:43:29.100Z,88165.00
2024-04-19T04:44:28.994Z,88166.00
2024-04-19T04:45:29.010Z,88167.00
2024-04-19T04:46:28.998Z,88169.00
2024-04-19T04:47:29.050Z,88172.00
2024-04-19T04:48:29.065Z,88175.00
2024-04-19T04:49:29.000Z,88171.00
2024-04-19T05:12:50.694Z,88190.00
2024-04-19T05:13:28.929Z,88191.00
2024-04-19T05:14:28.782Z,88192.00
2024-04-19T05:15:28.814Z,88193.00
2024-04-19T05:16:28.800Z,88191.00
2024-04-19T05:17:28.857Z,88188.00
2024-04-19T05:18:28.913Z,88189.00
2024-04-19T05:19:28.800Z,88187.00
2024-04-19T05:20:30.635Z,88186.00
2024-04-19T05:21:28.852Z,88185.00
2024-04-19T05:22:28.799Z,88184.00
2024-04-19T05:23:28.949Z,88183.00
2024-04-19T05:24:29.688Z,88186.00
2024-04-19T05:25:29.602Z,88185.00
2024-04-19T05:26:29.926Z,88184.00
2024-04-19T05:27:28.788Z,88186.00
2024-04-19T05:28:29.106Z,88184.00
2024-04-19T05:29:31.670Z,88184.00
2024-04-19T05:30:28.830Z,88183.00
2024-04-19T05:31:28.805Z,88181.00
2024-04-19T05:32:28.904Z,88180.00
2024-04-19T05:33:28.862Z,88179.00
2024-04-19T05:34:28.808Z,88176.00
2024-04-19T05:35:28.860Z,88180.00
2024-04-19T05:36:28.894Z,88181.00
2024-04-19T05:37:28.827Z,88182.00
2024-04-19T05:38:28.838Z,88180.00
2024-04-19T05:39:28.851Z,88179.00
2024-04-19T05:40:29.631Z,88180.00
2024-04-19T05:41:28.833Z,88178.00
2024-04-19T05:42:30.715Z,88176.00
2024-04-19T05:43:29.616Z,88178.00
2024-04-19T05:44:28.835Z,88176.00
2024-04-19T05:45:28.911Z,88176.00
2024-04-19T05:46:28.923Z,88176.00
2024-04-19T05:47:28.972Z,88179.00
2024-04-19T05:48:29.917Z,88180.00
2024-04-19T05:49:28.958Z,88180.00
2024-04-19T05:50:28.860Z,88179.00
2024-04-19T05:51:29.679Z,88175.00
2024-04-19T05:52:28.849Z,88176.00
2024-04-19T05:53:28.876Z,88176.00
2024-04-19T05:54:29.042Z,88176.00
2024-04-19T05:55:28.873Z,88176.00
2024-04-19T05:56:28.918Z,88174.00
2024-04-19T05:57:28.953Z,88173.00
2024-04-19T05:58:28.913Z,88176.00
2024-04-19T05:59:28.919Z,88177.00
2024-04-19T06:00:28.920Z,88175.00
2024-04-19T06:01:29.048Z,88174.00
2024-04-19T06:02:29.217Z,88174.00
2024-04-19T06:03:29.168Z,88170.00
2024-04-19T06:04:29.132Z,88169.00
2024-04-19T06:05:29.191Z,88168.00
2024-04-19T06:06:29.314Z,88166.00
2024-04-19T06:07:29.411Z,88165.00
2024-04-19T06:08:29.381Z,88165.00
2024-04-19T06:09:29.483Z,88164.00
2024-04-19T06:10:29.520Z,88165.00
2024-04-19T06:11:29.624Z,88164.00
2024-04-19T06:12:29.733Z,88163.00
2024-04-19T06:13:29.728Z,88160.00
2024-04-19T06:14:29.775Z,88160.00
2024-04-19T06:15:29.901Z,88160.00
2024-04-19T06:16:29.891Z,88159.00
2024-04-19T06:17:30.021Z,88157.00
2024-04-19T06:18:30.116Z,88158.00
2024-04-19T06:19:30.147Z,88158.00
2024-04-19T06:20:30.127Z,88157.00
2024-04-19T06:21:30.316Z,88158.00
2024-04-19T06:22:30.260Z,88158.00
2024-04-19T06:23:30.303Z,88161.00
2024-04-19T06:24:30.486Z,88159.00
2024-04-19T06:25:30.420Z,88160.00
2024-04-19T06:26:30.467Z,88162.00
2024-04-19T06:27:30.561Z,88163.00
2024-04-19T06:28:30.577Z,88163.00
2024-04-19T06:29:30.661Z,88162.00
2024-04-19T06:30:30.825Z,88163.00
2024-04-19T06:31:30.780Z,88163.00
2024-04-19T06:32:30.822Z,88164.00
2024-04-19T06:33:31.195Z,88162.00
2024-04-19T06:34:30.875Z,88165.00
2024-04-19T06:35:31.059Z,88165.00
2024-04-19T06:36:31.025Z,88165.00
2024-04-19T06:37:31.109Z,88164.00
2024-04-19T06:38:31.069Z,88167.00
2024-04-19T06:39:31.106Z,88164.00
2024-04-19T06:40:31.204Z,88165.00
2024-04-19T06:41:31.118Z,88165.00
2024-04-19T06:42:31.073Z,88164.00
2024-04-19T06:43:31.083Z,88161.00
2024-04-19T06:44:31.063Z,88160.00
2024-04-19T06:45:31.118Z,88160.00
2024-04-19T06:46:31.060Z,88157.00
2024-04-19T06:47:31.124Z,88157.00
2024-04-19T06:48:31.218Z,88158.00
2024-04-19T06:49:31.084Z,88156.00
2024-04-19T06:50:31.032Z,88155.00
2024-04-19T06:51:31.708Z,88155.00
2024-04-19T06:52:31.052Z,88156.00
2024-04-19T06:53:31.170Z,88153.00
2024-04-19T06:54:31.120Z,88152.00
2024-04-19T06:55:31.029Z,88151.00
2024-04-19T06:56:31.044Z,88148.00
2024-04-19T06:57:31.076Z,88147.00
2024-04-19T06:58:31.118Z,88145.00
2024-04-19T06:59:31.017Z,88144.00
2024-04-19T07:01:31.184Z,88143.00
2024-04-19T07:02:31.245Z,88142.00
2024-04-19T07:03:31.168Z,88143.00
2024-04-19T07:04:31.405Z,88142.00
2024-04-19T07:05:32.665Z,88138.00
2024-04-19T07:06:38.861Z,88138.00
2024-04-19T07:07:32.166Z,88137.00
2024-04-19T07:08:31.116Z,88138.00
2024-04-19T07:09:31.167Z,88137.00
2024-04-19T07:10:31.152Z,88136.00
2024-04-19T07:11:31.084Z,88134.00
2024-04-19T07:12:31.146Z,88132.00
2024-04-19T07:13:31.125Z,88132.00
2024-04-19T07:14:31.108Z,88132.00
2024-04-19T07:15:31.234Z,88134.00
2024-04-19T07:16:31.077Z,88132.00
2024-04-19T07:17:31.072Z,88130.00
2024-04-19T07:18:31.065Z,88129.00
2024-04-19T07:19:31.097Z,88131.00
2024-04-19T07:20:31.344Z,88132.00
2024-04-19T07:21:31.033Z,88133.00
2024-04-19T07:22:31.033Z,88133.00
2024-04-19T07:23:31.192Z,88133.00
2024-04-19T07:24:31.029Z,88132.00
2024-04-19T07:25:31.032Z,88134.00
2024-04-19T07:26:31.012Z,88132.00
2024-04-19T07:27:36.414Z,88132.00
2024-04-19T07:28:30.977Z,88128.00
2024-04-19T07:29:31.147Z,88128.00
2024-04-19T07:30:31.038Z,88125.00
2024-04-19T07:31:31.276Z,88125.00
2024-04-19T07:32:31.019Z,88121.00
2024-04-19T07:33:31.008Z,88122.00
2024-04-19T07:34:30.997Z,88119.00
2024-04-19T07:35:30.946Z,88118.00
2024-04-19T07:36:37.089Z,88117.00
2024-04-19T07:37:32.830Z,88117.00
2024-04-19T07:38:31.037Z,88116.00
2024-04-19T07:39:30.931Z,88116.00
2024-04-19T07:40:31.052Z,88115.00
2024-04-19T07:41:30.877Z,88115.00
2024-04-19T07:42:31.683Z,88115.00
2024-04-19T07:43:30.871Z,88116.00
2024-04-19T07:44:30.960Z,88111.00
2024-04-19T07:45:30.977Z,88110.00
2024-04-19T07:46:30.916Z,88112.00
2024-04-19T07:47:31.038Z,88110.00
2024-04-19T07:48:31.234Z,88108.00
2024-04-19T07:49:31.067Z,88107.00
2024-04-19T07:50:30.989Z,88107.00
2024-04-19T07:51:31.045Z,88105.00
2024-04-19T07:52:31.045Z,88105.00
2024-04-19T07:53:31.057Z,88105.00
2024-04-19T07:54:31.204Z,88103.00
2024-04-19T07:55:31.113Z,88102.00
2024-04-19T07:56:31.101Z,88101.00
2024-04-19T07:57:31.174Z,88099.00
2024-04-19T07:58:31.146Z,88095.00
2024-04-19T07:59:31.358Z,88096.00
2024-04-19T08:00:31.347Z,88093.00
2024-04-19T08:01:31.239Z,88092.00
2024-04-19T08:02:31.295Z,88092.00
2024-04-19T08:04:31.776Z,88090.00
2024-04-19T08:05:31.260Z,88092.00
2024-04-19T08:06:31.302Z,88090.00
2024-04-19T08:07:38.993Z,88090.00
2024-04-19T08:08:32.264Z,88088.00
2024-04-19T08:09:31.741Z,88088.00
2024-04-19T08:10:33.892Z,88083.00
2024-04-19T08:11:34.289Z,88083.00
2024-04-19T08:12:31.286Z,88080.00
2024-04-19T08:13:31.212Z,88079.00
2024-04-19T08:14:31.177Z,88079.00
2024-04-19T08:15:31.212Z,88075.00
2024-04-19T08:16:32.187Z,88077.00
2024-04-19T08:17:31.212Z,88076.00
2024-04-19T08:18:31.180Z,88075.00
2024-04-19T08:19:31.160Z,88075.00
2024-04-19T08:20:31.157Z,88081.00
2024-04-19T08:21:31.867Z,88074.00
2024-04-19T08:22:31.165Z,88073.00
2024-04-19T08:23:31.120Z,88072.00
2024-04-19T08:24:31.103Z,88070.00
2024-04-19T08:25:31.165Z,88069.00
2024-04-19T08:26:31.114Z,88072.00
2024-04-19T08:27:31.080Z,88070.00
2024-04-19T08:28:31.177Z,88069.00
2024-04-19T08:29:35.510Z,88069.00
2024-04-19T08:30:32.157Z,88067.00
2024-04-19T08:31:31.086Z,88066.00
2024-04-19T08:32:31.214Z,88068.00
2024-04-19T08:33:31.017Z,88066.00
2024-04-19T08:34:30.980Z,88064.00
2024-04-19T08:35:30.983Z,88064.00
2024-04-19T08:36:31.164Z,88061.00
2024-04-19T08:37:30.965Z,88064.00
2024-04-19T08:38:30.962Z,88060.00
2024-04-19T08:39:31.746Z,88059.00
2024-04-19T08:40:31.698Z,88055.00
2024-04-19T08:41:30.978Z,88054.00
2024-04-19T08:42:30.991Z,88054.00
2024-04-19T08:43:30.943Z,88053.00
2024-04-19T08:44:30.937Z,88051.00
2024-04-19T08:45:31.043Z,88050.00
2024-04-19T08:46:30.929Z,88051.00
2024-04-19T08:47:31.057Z,88049.00
2024-04-19T08:48:31.832Z,88049.00
2024-04-19T08:49:32.762Z,88050.00
2024-04-19T08:50:30.986Z,88049.00
2024-04-19T08:51:44.556Z,88049.00
2024-04-19T08:52:50.349Z,88048.00
2024-04-19T08:53:31.908Z,88046.00
2024-04-19T08:54:30.879Z,88047.00
2024-04-19T08:55:30.835Z,88043.00
2024-04-19T08:56:30.827Z,88043.00
2024-04-19T08:57:30.813Z,88043.00
2024-04-19T08:58:30.797Z,88042.00
2024-04-19T08:59:30.889Z,88039.00
2024-04-19T09:00:30.805Z,88038.00
2024-04-19T09:01:30.870Z,88038.00
2024-04-19T09:02:30.764Z,88038.00
2024-04-19T09:03:30.854Z,88036.00
2024-04-19T09:04:30.848Z,88037.00
2024-04-19T09:05:30.731Z,88037.00
2024-04-19T09:06:30.751Z,88038.00
2024-04-19T09:07:30.737Z,88036.00
2024-04-19T09:08:30.698Z,88036.00
2024-04-19T09:09:30.728Z,88036.00
2024-04-19T09:10:30.679Z,88034.00
2024-04-19T09:11:30.733Z,88035.00
2024-04-19T09:12:30.733Z,88034.00
2024-04-19T09:13:30.654Z,88035.00
2024-04-19T09:14:30.675Z,88035.00
2024-04-19T09:15:30.685Z,88037.00
2024-04-19T09:16:30.654Z,88034.00
2024-04-19T09:17:30.778Z,88034.00
2024-04-19T09:18:30.640Z,88037.00
2024-04-19T09:19:30.629Z,88036.00
2024-04-19T09:20:30.628Z,88035.00
2024-04-19T09:21:30.661Z,88034.00
2024-04-19T09:22:31.225Z,88034.00
2024-04-19T09:23:30.620Z,88034.00
2024-04-19T09:24:31.032Z,88033.00
2024-04-19T09:25:30.591Z,88032.00
2024-04-19T09:26:31.216Z,88030.00
2024-04-19T09:27:30.571Z,88033.00
2024-04-19T09:28:31.285Z,88032.00
2024-04-19T09:29:30.556Z,88032.00
2024-04-19T09:30:30.630Z,88031.00
2024-04-19T09:31:31.214Z,88032.00
2024-04-19T09:32:30.590Z,88032.00
2024-04-19T09:33:30.529Z,88031.00
2024-04-19T09:34:30.449Z,88029.00
2024-04-19T09:35:30.440Z,88029.00
2024-04-19T09:36:30.451Z,88026.00
2024-04-19T09:37:30.434Z,88027.00
2024-04-19T09:38:30.401Z,88026.00
2024-04-19T09:39:30.405Z,88027.00
2024-04-19T09:40:31.236Z,88028.00
2024-04-19T09:41:30.370Z,88026.00
2024-04-19T09:42:30.440Z,88028.00
2024-04-19T09:43:30.452Z,88026.00
2024-04-19T09:44:30.384Z,88022.00
2024-04-19T09:45:30.379Z,88023.00
2024-04-19T09:46:30.386Z,88020.00
2024-04-19T09:47:31.265Z,88018.00
2024-04-19T09:48:30.515Z,88014.00
2024-04-19T09:49:30.652Z,88012.00
2024-04-19T09:50:30.419Z,88012.00
2024-04-19T09:51:30.348Z,88011.00
2024-04-19T09:52:32.237Z,88010.00
2024-04-19T09:53:30.502Z,88008.00
2024-04-19T09:54:30.776Z,88009.00
2024-04-19T09:55:30.409Z,88008.00
2024-04-19T09:56:30.340Z,88007.00
2024-04-19T09:57:30.270Z,88004.00
2024-04-19T09:58:30.239Z,88005.00
2024-04-19T09:59:30.249Z,88002.00
2024-04-19T10:00:31.037Z,87999.00
2024-04-19T10:01:30.445Z,87998.00
2024-04-19T10:02:36.371Z,87997.00
2024-04-19T10:03:31.249Z,87999.00
2024-04-19T10:04:30.276Z,88000.00
2024-04-19T10:05:30.126Z,87997.00
2024-04-19T10:06:30.207Z,87996.00
2024-04-19T10:07:30.340Z,87992.00
2024-04-19T10:08:30.073Z,87992.00
2024-04-19T10:09:30.166Z,87989.00
2024-04-19T10:10:30.108Z,87989.00
2024-04-19T10:11:30.156Z,87988.00
2024-04-19T10:12:30.130Z,87987.00
2024-04-19T10:13:30.105Z,87986.00
2024-04-19T10:14:30.046Z,87984.00
2024-04-19T10:15:30.062Z,87984.00
2024-04-19T10:16:30.007Z,87983.00
2024-04-19T10:18:30.305Z,87977.00
2024-04-19T10:19:36.692Z,87976.00
2024-04-19T10:20:30.942Z,87973.00
2024-04-19T10:21:29.986Z,87973.00
2024-04-19T10:22:29.945Z,87973.00
2024-04-19T10:23:30.111Z,87975.00
2024-04-19T10:24:29.872Z,87971.00
2024-04-19T10:25:29.840Z,87969.00
2024-04-19T10:26:29.855Z,87962.00
2024-04-19T10:27:30.055Z,87962.00
2024-04-19T10:28:29.824Z,87963.00
2024-04-19T10:29:29.796Z,87962.00
2024-04-19T10:30:35.972Z,87961.00
2024-04-19T10:31:30.774Z,87956.00
2024-04-19T10:32:29.880Z,87957.00
2024-04-19T10:33:29.746Z,87958.00
2024-04-19T10:34:29.706Z,87956.00
2024-04-19T10:35:29.676Z,87953.00
2024-04-19T10:36:29.822Z,87952.00
2024-04-19T10:37:29.644Z,87953.00
2024-04-19T10:38:29.638Z,87947.00
2024-04-19T10:39:29.927Z,87947.00
2024-04-19T10:40:29.614Z,87945.00
2024-04-19T10:41:29.642Z,87943.00
2024-04-19T10:42:29.629Z,87937.00
2024-04-19T10:43:29.648Z,87934.00
2024-04-19T10:44:29.656Z,87929.00
2024-04-19T10:45:29.572Z,87925.00
2024-04-19T10:46:29.517Z,87922.00
2024-04-19T10:47:29.543Z,87918.00
2024-04-19T10:48:30.915Z,87916.00
2024-04-19T10:49:29.765Z,87914.00
2024-04-19T10:50:29.603Z,87913.00
2024-04-19T10:51:29.467Z,87912.00
2024-04-19T10:52:29.615Z,87909.00
2024-04-19T10:53:29.535Z,87908.00
2024-04-19T10:54:30.258Z,87909.00
2024-04-19T10:55:29.367Z,87908.00
2024-04-19T10:56:29.377Z,87901.00
2024-04-19T10:57:29.351Z,87900.00
2024-04-19T10:58:29.287Z,87898.00
2024-04-19T10:59:29.285Z,87896.00
2024-04-19T11:00:29.270Z,87896.00
2024-04-19T11:01:29.266Z,87895.00
2024-04-19T11:02:29.296Z,87894.00
2024-04-19T11:03:29.199Z,87895.00
2024-04-19T11:04:29.892Z,87894.00
2024-04-19T11:05:29.144Z,87896.00
2024-04-19T11:06:29.140Z,87892.00
2024-04-19T11:07:29.072Z,87890.00
2024-04-19T11:08:29.074Z,87886.00
2024-04-19T11:09:29.074Z,87884.00
2024-04-19T11:10:29.044Z,87883.00
2024-04-19T11:11:29.043Z,87880.00
2024-04-19T11:12:29.026Z,87874.00
2024-04-19T11:13:28.999Z,87873.00
2024-04-19T11:14:28.947Z,87871.00
2024-04-19T11:15:29.154Z,87869.00
2024-04-19T11:16:28.923Z,87868.00
2024-04-19T11:17:28.985Z,87869.00
2024-04-19T11:18:29.155Z,87865.00
2024-04-19T11:19:28.893Z,87858.00
2024-04-19T11:20:28.869Z,87853.00
2024-04-19T11:21:28.836Z,87851.00
2024-04-19T11:22:28.868Z,87846.00
2024-04-19T11:23:28.752Z,87844.00
2024-04-19T11:24:28.777Z,87843.00
2024-04-19T11:25:28.746Z,87842.00
2024-04-19T11:26:28.735Z,87838.00
2024-04-19T11:27:28.779Z,87835.00
2024-04-19T11:28:28.799Z,87835.00
2024-04-19T11:29:29.147Z,87831.00
2024-04-19T11:30:28.909Z,87832.00
2024-04-19T11:31:29.007Z,87828.00
2024-04-19T11:32:29.014Z,87820.00
2024-04-19T11:33:29.846Z,87822.00
2024-04-19T11:34:29.100Z,87820.00
2024-04-19T11:35:29.045Z,87811.00
2024-04-19T11:36:29.273Z,87807.00
2024-04-19T11:37:29.094Z,87805.00
2024-04-19T11:38:29.775Z,87807.00
2024-04-19T11:39:29.275Z,87804.00
2024-04-19T11:40:29.168Z,87801.00
2024-04-19T11:41:29.103Z,87796.00
2024-04-19T11:42:29.106Z,87796.00
2024-04-19T11:43:29.094Z,87793.00
2024-04-19T11:44:29.058Z,87788.00
2024-04-19T11:45:29.087Z,87792.00
2024-04-19T11:46:28.995Z,87785.00
2024-04-19T11:47:29.012Z,87787.00
2024-04-19T11:48:29.246Z,87788.00
2024-04-19T11:49:28.992Z,87783.00
2024-04-19T11:50:28.906Z,87778.00
2024-04-19T11:51:28.928Z,87775.00
2024-04-19T11:52:28.874Z,87772.00
2024-04-19T11:53:28.851Z,87768.00
2024-04-19T11:54:28.883Z,87765.00
2024-04-19T11:55:28.836Z,87763.00
2024-04-19T11:56:28.780Z,87762.00
2024-04-19T11:57:28.754Z,87760.00
2024-04-19T11:58:28.683Z,87757.00
2024-04-19T11:59:28.672Z,87752.00
2024-04-19T12:00:28.665Z,87752.00
2024-04-19T12:01:28.695Z,87749.00
2024-04-19T12:02:28.646Z,87746.00
2024-04-19T12:03:28.726Z,87746.00
2024-04-19T12:04:28.808Z,87747.00
2024-04-19T12:05:28.793Z,87745.00
2024-04-19T12:06:28.798Z,87745.00
2024-04-19T12:07:28.786Z,87745.00
2024-04-19T12:08:28.833Z,87744.00
2024-04-19T12:09:28.918Z,87742.00